Time;durP1;ratioP1;P1;durP2;ratioP2;P2;SDS_P1;SDS_P2;PMS_P1;PMS_P2;Temp;Humidity;BMP_temperature;BMP_pressure;BME280_temperature;BME280_humidity;BME280_pressure;Samples;Min_cycle;Max_cycle;Signal;HPM_P1;HPM_P2
2023/08/04 00:02:08;;;;;;;3.05;2.95;;;18.70;99.90;;;18.90;94.33;100967.16;5058442;28;20085;-70
2023/08/04 00:04:38;;;;;;;3.33;3.17;;;18.60;99.90;;;18.90;93.44;100967.16;5042441;28;20071;-69
2023/08/04 00:07:06;;;;;;;3.00;2.90;;;18.60;99.90;;;18.84;94.37;100964.69;5043976;28;20148;-70
2023/08/04 00:09:36;;;;;;;3.00;2.90;;;18.60;99.90;;;18.89;94.28;100964.53;5041208;28;20411;-70
2023/08/04 00:12:05;;;;;;;3.00;2.90;;;18.60;99.90;;;18.91;94.31;100974.25;5031920;28;20479;-69
2023/08/04 00:14:33;;;;;;;2.63;2.53;;;18.60;99.90;;;18.96;93.90;100967.84;5032937;28;20127;-70
2023/08/04 00:17:02;;;;;;;2.92;2.83;;;18.60;99.90;;;19.03;93.52;100974.75;5032867;28;20049;-70
2023/08/04 00:19:30;;;;;;;2.85;2.75;;;18.70;99.90;;;18.96;94.24;100973.19;5033989;28;20045;-70
2023/08/04 00:22:00;;;;;;;3.55;3.45;;;18.60;99.90;;;18.93;94.06;100976.84;5042856;28;20470;-70
2023/08/04 00:24:28;;;;;;;6.93;4.05;;;18.60;99.90;;;18.94;93.98;100973.25;5043041;28;20081;-69
2023/08/04 00:26:56;;;;;;;3.67;3.55;;;18.60;99.90;;;18.97;93.99;100965.09;5041974;28;20037;-71
2023/08/04 00:29:25;;;;;;;3.55;3.45;;;18.70;99.90;;;19.09;93.38;100966.44;5055749;28;20116;-70
2023/08/04 00:31:53;;;;;;;3.47;3.38;;;18.80;99.90;;;19.04;93.47;100973.78;5043909;28;20136;-70
2023/08/04 00:34:21;;;;;;;3.10;3.00;;;18.70;99.90;;;19.04;93.96;100973.78;5048045;28;20053;-70
2023/08/04 00:36:50;;;;;;;3.15;3.05;;;18.70;99.90;;;19.01;94.06;100981.97;5040802;28;20049;-70
2023/08/04 00:39:19;;;;;;;3.45;3.35;;;18.70;99.90;;;18.79;95.00;100974.69;5056520;28;20053;-70
2023/08/04 00:41:48;;;;;;;3.17;3.08;;;18.50;99.90;;;18.74;95.00;100976.66;5059038;28;20045;-70
2023/08/04 00:44:16;;;;;;;5.50;4.35;;;18.50;99.90;;;18.77;95.57;100981.94;5057611;28;20136;-70
2023/08/04 00:46:45;;;;;;;3.28;3.17;;;18.40;99.90;;;18.79;95.34;100979.19;5058379;28;20052;-68
2023/08/04 00:49:16;;;;;;;3.22;3.13;;;18.40;99.90;;;18.87;94.63;100977.13;5042823;28;20055;-70
2023/08/04 00:51:46;;;;;;;3.38;3.28;;;18.50;99.90;;;18.99;93.47;100981.16;5041497;28;20132;-71
2023/08/04 00:54:15;;;;;;;;;;;18.60;99.90;;;18.91;93.40;100966.19;5044600;28;20049;-71
2023/08/04 00:56:45;;;;;;;3.50;3.40;;;18.60;99.90;;;18.91;93.36;100976.91;5040345;28;20019;-70
2023/08/04 00:59:13;;;;;;;3.72;3.60;;;18.60;99.90;;;18.87;93.52;100979.78;5040910;28;20131;-70
2023/08/04 01:01:41;;;;;;;3.00;2.90;;;18.50;99.90;;;18.89;93.42;100983.28;5043652;28;20095;-69
2023/08/04 01:04:10;;;;;;;2.95;2.85;;;18.50;99.90;;;18.85;93.92;100989.69;5041325;28;20049;-70
2023/08/04 01:06:51;;;;;;;3.08;2.97;;;18.50;99.90;;;18.86;94.43;100981.59;5058350;28;20501;-70
2023/08/04 01:09:29;;;;;;;3.35;3.25;;;18.50;99.90;;;18.92;93.83;100986.72;5044005;28;20449;-70
2023/08/04 01:12:08;;;;;;;3.20;3.10;;;18.60;99.90;;;18.84;93.98;100967.38;5041472;28;20053;-71
2023/08/04 01:14:37;;;;;;;3.17;3.08;;;18.60;99.90;;;18.87;94.06;100990.50;5040915;28;20057;-70
2023/08/04 01:17:23;;;;;;;3.28;3.17;;;18.60;99.90;;;18.98;93.99;101008.88;5044140;28;20465;-70
2023/08/04 01:19:51;;;;;;;3.03;2.92;;;18.60;99.90;;;18.91;94.30;100993.00;5032110;28;20403;-70
2023/08/04 01:22:21;;;;;;;3.35;3.25;;;18.60;99.90;;;18.96;94.10;100989.28;5039100;28;20061;-70
2023/08/04 01:24:51;;;;;;;2.70;2.60;;;18.60;99.90;;;18.96;94.14;100994.66;5035263;28;20050;-70
2023/08/04 01:27:31;;;;;;;3.00;2.90;;;18.60;99.90;;;18.87;95.04;100991.38;5044176;28;20099;-70
2023/08/04 01:30:04;;;;;;;3.17;3.08;;;18.60;99.90;;;18.90;95.31;100991.28;5046139;28;20095;-70
2023/08/04 01:32:33;;;;;;;2.85;2.75;;;18.60;99.90;;;18.93;94.85;100985.78;5051456;28;20045;-70
2023/08/04 01:35:02;;;;;;;2.80;2.70;;;18.60;99.90;;;18.81;95.41;100988.91;5047345;28;20047;-69
2023/08/04 01:37:32;;;;;;;3.22;3.13;;;18.50;99.90;;;18.82;96.02;100990.66;5051160;28;20053;-71
2023/08/04 01:40:01;;;;;;;3.10;3.00;;;18.50;99.90;;;18.87;95.17;100993.19;5051205;28;20479;-70
2023/08/04 01:42:29;;;;;;;3.20;3.10;;;18.50;99.90;;;18.85;95.23;100995.91;5035728;28;20111;-69
2023/08/04 01:44:57;;;;;;;3.70;3.58;;;18.50;99.90;;;18.81;94.99;100999.63;5035687;28;20037;-69
2023/08/04 01:47:25;;;;;;;3.20;3.10;;;18.50;99.90;;;18.71;95.24;100973.22;5037097;28;20120;-70
2023/08/04 01:49:54;;;;;;;4.55;4.28;;;18.50;99.90;;;18.85;95.52;101003.09;5060996;28;20053;-69
2023/08/04 01:52:23;;;;;;;3.30;3.20;;;18.50;99.90;;;18.87;95.04;101004.78;5045428;28;20546;-70
2023/08/04 01:54:53;;;;;;;3.85;3.65;;;18.50;99.90;;;18.92;94.88;101007.28;5044646;28;20049;-70
2023/08/04 01:57:21;;;;;;;2.80;2.70;;;18.60;99.90;;;18.87;94.80;101009.28;5046860;28;20090;-70
2023/08/04 01:59:49;;;;;;;3.28;3.17;;;18.60;99.90;;;18.88;94.81;101009.22;5043648;28;20487;-70
2023/08/04 02:02:18;;;;;;;3.03;2.92;;;18.50;99.90;;;18.75;94.54;101009.72;5043336;28;20506;-70
2023/08/04 02:04:46;;;;;;;3.35;3.25;;;18.50;99.90;;;18.81;95.03;101007.66;5043675;28;20053;-70
2023/08/04 02:07:14;;;;;;;3.47;3.38;;;18.50;99.90;;;18.75;94.93;101010.59;5046243;28;20498;-69
2023/08/04 02:09:43;;;;;;;3.65;3.55;;;18.40;99.90;;;18.60;94.75;100997.72;5044673;28;20479;-70
2023/08/04 02:12:13;;;;;;;3.60;3.50;;;18.30;99.90;;;18.59;95.05;101004.03;5060934;28;20075;-70
2023/08/04 02:14:41;;;;;;;3.10;3.00;;;18.30;99.90;;;18.69;94.85;101007.25;5044871;28;20045;-70
2023/08/04 02:17:11;;;;;;;4.07;3.88;;;18.40;99.90;;;18.71;94.84;101008.06;5044612;28;20298;-70
2023/08/04 02:19:40;;;;;;;3.45;3.35;;;18.40;99.90;;;18.76;95.18;101016.81;5061502;28;20410;-70
2023/08/04 02:22:08;;;;;;;3.60;3.50;;;18.40;99.90;;;18.71;95.18;101018.78;5043525;28;20601;-69
2023/08/04 02:24:36;;;;;;;3.65;3.55;;;18.40;99.90;;;18.66;95.73;101010.06;5046671;28;20055;-70
2023/08/04 02:27:06;;;;;;;2.88;2.78;;;18.30;99.90;;;18.62;95.49;101019.97;5034604;28;20034;-69
2023/08/04 02:29:35;;;;;;;3.20;3.10;;;18.30;99.90;;;18.69;95.35;101026.88;5044878;28;20054;-70
2023/08/04 02:32:04;;;;;;;3.22;3.13;;;18.40;99.90;;;18.78;95.18;101026.56;5034556;28;20091;-70
2023/08/04 02:34:33;;;;;;;3.42;3.33;;;18.40;99.90;;;18.81;95.46;101026.44;5040136;28;20045;-70
2023/08/04 02:37:01;;;;;;;2.95;2.85;;;18.50;99.90;;;18.85;95.30;101032.59;5044218;28;20073;-70
2023/08/04 02:39:29;;;;;;;3.38;3.28;;;18.50;99.90;;;18.97;95.16;101025.91;5044767;28;20103;-70
2023/08/04 02:41:58;;;;;;;2.85;2.75;;;18.60;99.90;;;18.87;94.84;101030.72;5043522;28;20106;-70
2023/08/04 02:44:26;;;;;;;2.92;2.83;;;18.60;99.90;;;18.95;94.51;101023.25;5045371;28;20090;-70
2023/08/04 02:46:56;;;;;;;2.83;2.72;;;18.60;99.90;;;19.08;94.08;101031.75;5043079;28;20095;-70
2023/08/04 02:49:25;;;;;;;2.70;2.60;;;18.70;99.90;;;19.14;93.50;101024.34;5034509;28;20054;-70
2023/08/04 02:51:53;;;;;;;3.33;3.22;;;18.90;99.90;;;19.08;93.94;101024.59;5049673;28;20071;-71
2023/08/04 02:54:22;;;;;;;3.50;3.40;;;18.80;99.90;;;19.07;94.13;101029.97;5034361;28;20080;-71
2023/08/04 02:56:50;;;;;;;2.83;2.72;;;18.80;99.90;;;19.01;94.86;101033.75;5045153;28;20486;-70
2023/08/04 02:59:18;;;;;;;2.95;2.85;;;18.70;99.90;;;19.20;94.49;101032.16;5044400;28;20037;-70
2023/08/04 03:01:47;;;;;;;3.03;2.92;;;18.90;99.90;;;19.25;94.42;101037.34;5059554;28;20128;-70
2023/08/04 03:04:17;;;;;;;3.00;2.90;;;18.90;99.90;;;19.17;94.75;101034.06;5043783;28;20102;-70
2023/08/04 03:06:45;;;;;;;3.20;3.10;;;18.90;99.90;;;19.20;94.61;101036.66;5044785;28;20048;-70
2023/08/04 03:09:13;;;;;;;3.05;2.95;;;18.90;99.90;;;18.96;95.33;101032.19;5058062;28;20483;-70
2023/08/04 03:11:42;;;;;;;2.90;2.80;;;18.70;99.90;;;18.99;95.91;101035.63;5045427;28;20044;-68
2023/08/04 03:14:11;;;;;;;2.97;2.88;;;18.70;99.90;;;18.97;95.87;101039.31;5033607;28;20498;-70
2023/08/04 03:16:39;;;;;;;3.30;3.20;;;18.60;99.90;;;18.95;95.67;101039.34;5033459;28;20091;-70
2023/08/04 03:19:07;;;;;;;3.10;3.00;;;18.70;99.90;;;18.95;95.47;101033.13;5033698;28;20056;-69
2023/08/04 03:21:37;;;;;;;3.00;2.90;;;18.60;99.90;;;18.81;94.54;101041.66;5050338;28;20394;-70
2023/08/04 03:24:06;;;;;;;3.30;3.20;;;18.50;99.90;;;18.70;95.28;101044.69;5043979;28;20044;-70
2023/08/04 03:26:34;;;;;;;3.55;3.45;;;18.40;99.90;;;18.69;94.73;101037.59;5043512;28;20053;-70
2023/08/04 03:29:02;;;;;;;3.05;2.95;;;18.40;99.90;;;18.67;95.60;101044.81;5043232;28;20044;-69
2023/08/04 03:31:31;;;;;;;3.17;3.08;;;18.40;99.90;;;18.73;95.61;101066.06;5044183;28;20063;-70
2023/08/04 03:33:59;;;;;;;3.00;2.90;;;18.40;99.90;;;18.64;96.53;101046.75;5041988;28;20048;-70
2023/08/04 03:36:27;;;;;;;3.63;3.45;;;18.40;99.90;;;18.72;96.26;101047.31;5044876;28;20049;-70
2023/08/04 03:38:57;;;;;;;3.13;3.03;;;18.40;99.90;;;18.68;96.52;101051.91;5041517;28;20053;-70
2023/08/04 03:41:25;;;;;;;5.37;3.83;;;18.40;99.90;;;18.65;96.87;101051.16;5033268;28;20037;-70
2023/08/04 03:43:53;;;;;;;3.03;2.92;;;18.40;99.90;;;18.72;96.51;101058.94;5033233;28;20155;-69
2023/08/04 03:46:22;;;;;;;6.50;4.00;;;18.40;99.90;;;18.61;97.51;101061.09;5033131;28;20045;-70
2023/08/04 03:48:50;;;;;;;3.28;3.17;;;18.40;99.90;;;18.59;97.33;101060.28;5035104;28;20037;-71
2023/08/04 03:51:20;;;;;;;3.10;3.00;;;18.30;99.90;;;18.59;97.16;101060.28;5043025;28;20127;-70
2023/08/04 03:53:48;;;;;;;3.22;3.13;;;18.30;99.90;;;18.75;97.08;101063.31;5043608;28;20483;-70
2023/08/04 03:56:18;;;;;;;3.60;3.50;;;18.40;99.90;;;18.81;96.41;101066.63;5057811;28;20446;-70
2023/08/04 03:58:46;;;;;;;3.35;3.25;;;18.50;99.90;;;18.73;96.26;101070.53;5044342;28;20122;-69
2023/08/04 04:01:16;;;;;;;2.95;2.85;;;18.40;99.90;;;18.84;96.72;101069.22;5040998;28;20045;-71
2023/08/04 04:03:45;;;;;;;3.10;3.00;;;18.50;99.90;;;18.90;96.11;101077.06;5041638;28;20053;-70
2023/08/04 04:06:13;;;;;;;3.90;3.70;;;18.50;99.90;;;19.08;95.67;101069.28;5044271;28;20502;-70
2023/08/04 04:08:41;;;;;;;3.03;2.92;;;18.70;99.90;;;19.06;94.96;101061.31;5041800;28;20104;-68
2023/08/04 04:11:09;;;;;;;4.40;4.20;;;18.80;99.90;;;19.07;94.68;101072.88;5043228;28;20037;-70
2023/08/04 04:13:40;;;;;;;3.22;3.13;;;18.70;99.90;;;19.06;95.12;101071.16;5042392;28;20053;-70
2023/08/04 04:16:08;;;;;;;3.15;3.05;;;18.80;99.90;;;19.14;95.19;101079.78;5057853;28;20103;-69
2023/08/04 04:18:37;;;;;;;3.17;3.08;;;18.80;99.90;;;18.55;94.49;100969.34;5043681;28;20091;-70
2023/08/04 04:21:05;;;;;;;3.00;2.90;;;18.90;99.90;;;19.37;94.35;101085.22;5041440;28;20115;-70
2023/08/04 04:23:33;;;;;;;3.30;3.20;;;19.10;99.90;;;19.35;93.18;101085.28;5044131;28;20051;-70
2023/08/04 04:26:03;;;;;;;3.35;3.25;;;19.10;99.90;;;19.42;93.43;101088.59;5040925;28;20068;-71
2023/08/04 04:28:33;;;;;;;3.05;2.95;;;19.10;99.90;;;19.36;93.20;101091.50;5032570;28;20434;-69
2023/08/04 04:31:04;;;;;;;3.00;2.90;;;19.10;99.90;;;19.46;93.84;101099.19;5032800;28;20048;-70
2023/08/04 04:33:32;;;;;;;3.13;3.03;;;19.10;99.90;;;19.51;92.68;101099.03;5032457;28;20490;-71
2023/08/04 04:36:01;;;;;;;2.92;2.83;;;19.20;99.90;;;19.53;92.88;101099.84;5035262;28;20060;-70
2023/08/04 04:38:29;;;;;;;2.70;2.60;;;19.20;99.90;;;19.59;93.04;101102.25;5042385;28;20048;-69
2023/08/04 04:40:58;;;;;;;2.95;2.85;;;19.30;99.90;;;19.58;92.67;101092.47;5043290;28;20045;-70
2023/08/04 04:43:26;;;;;;;3.03;2.92;;;19.40;99.90;;;19.41;92.55;101098.47;5041069;28;20505;-70
2023/08/04 04:45:56;;;;;;;3.13;3.03;;;19.20;99.90;;;19.33;92.79;101083.59;5044041;28;20481;-69
2023/08/04 04:48:26;;;;;;;3.10;3.00;;;19.20;99.90;;;19.26;92.60;101103.50;5044135;28;20041;-70
2023/08/04 04:50:54;;;;;;;3.20;3.10;;;19.00;99.90;;;19.03;94.56;101109.66;5041698;28;20073;-70
2023/08/04 04:53:22;;;;;;;2.80;2.70;;;18.80;99.90;;;19.35;94.08;101112.13;5043018;28;20069;-70
2023/08/04 04:55:51;;;;;;;3.03;2.92;;;19.00;99.90;;;19.53;93.86;101119.47;5042002;28;20499;-69
2023/08/04 04:58:19;;;;;;;3.15;3.05;;;19.20;99.90;;;19.45;93.63;101124.25;5042842;28;20045;-71
2023/08/04 05:00:47;;;;;;;2.90;2.80;;;19.20;99.90;;;19.28;95.73;101123.09;5046683;28;20120;-71
2023/08/04 05:03:16;;;;;;;3.10;3.00;;;19.00;99.90;;;19.44;94.99;101118.94;5045823;28;20077;-71
2023/08/04 05:05:46;;;;;;;2.72;2.63;;;19.10;99.90;;;19.48;95.06;101131.31;5047073;28;20123;-71
2023/08/04 05:08:14;;;;;;;2.95;2.85;;;19.20;99.90;;;19.45;95.24;101128.75;5060157;28;20498;-70
2023/08/04 05:10:42;;;;;;;4.18;3.97;;;19.20;99.90;;;19.61;93.90;101129.91;5047866;28;20120;-69
2023/08/04 05:13:11;;;;;;;2.75;2.65;;;19.40;99.90;;;19.55;93.62;101130.19;5035878;28;20049;-70
2023/08/04 05:15:39;;;;;;;2.90;2.80;;;19.30;99.90;;;19.56;92.72;101135.47;5035709;28;20054;-70
2023/08/04 05:18:07;;;;;;;3.00;2.90;;;19.40;99.90;;;19.61;92.47;101138.84;5036030;28;20046;-70
2023/08/04 05:20:36;;;;;;;5.68;4.07;;;19.40;99.90;;;19.57;91.40;101133.66;5041471;28;20046;-70
2023/08/04 05:23:05;;;;;;;3.20;3.10;;;19.40;99.90;;;19.50;90.78;101140.19;5046347;28;20053;-69
2023/08/04 05:25:34;;;;;;;3.60;3.40;;;19.30;99.90;;;19.47;89.40;101134.94;5061669;28;20499;-69
2023/08/04 05:28:22;;;;;;;3.47;3.38;;;19.30;99.90;;;19.37;89.27;101144.25;5045291;28;20111;-71
2023/08/04 05:30:55;;;;;;;3.25;3.15;;;19.20;99.90;;;19.26;90.40;101146.41;5036027;28;20049;-70
2023/08/04 05:33:25;;;;;;;2.90;2.80;;;19.00;99.90;;;19.32;89.40;101151.53;5035582;28;20050;-71
2023/08/04 05:35:54;;;;;;;3.00;2.90;;;19.10;99.90;;;19.26;89.96;101130.31;5035822;28;20406;-71
2023/08/04 05:38:24;;;;;;;3.15;3.05;;;19.10;99.90;;;19.22;90.14;101145.63;5039369;28;20045;-71
2023/08/04 05:40:53;;;;;;;3.10;3.00;;;19.00;99.90;;;19.33;89.56;101150.66;5036161;28;20041;-72
2023/08/04 05:43:23;;;;;;;3.50;3.40;;;19.10;99.90;;;19.03;90.92;101159.75;5035621;28;20458;-70
2023/08/04 05:45:51;;;;;;;3.20;3.10;;;18.80;99.90;;;18.98;92.51;101159.03;5035388;28;20077;-69
2023/08/04 05:48:20;;;;;;;3.15;3.05;;;18.70;99.90;;;18.76;93.63;101162.44;5037365;28;20631;-70
2023/08/04 05:50:48;;;;;;;3.53;3.38;;;18.60;99.90;;;18.91;93.83;101167.25;5045595;28;20037;-70
2023/08/04 05:53:16;;;;;;;3.30;3.20;;;18.60;99.90;;;19.01;93.20;101183.06;5045961;28;20045;-69
2023/08/04 05:55:46;;;;;;;2.80;2.70;;;18.80;99.90;;;19.04;92.79;101177.59;5044755;28;20069;-70
2023/08/04 05:58:14;;;;;;;3.17;3.08;;;18.80;99.90;;;19.10;92.61;101177.38;5046502;28;20135;-70
2023/08/04 06:00:43;;;;;;;3.15;3.05;;;18.90;99.90;;;19.11;92.20;101185.38;5043238;28;20153;-70
2023/08/04 06:03:11;;;;;;;3.10;3.00;;;18.90;99.90;;;19.18;91.99;101189.56;5043374;28;20152;-70
2023/08/04 06:05:39;;;;;;;3.33;3.22;;;19.00;99.90;;;19.00;92.53;101197.38;5047007;28;20126;-71
2023/08/04 06:08:08;;;;;;;3.53;3.42;;;18.90;99.90;;;18.88;94.13;101194.19;5044400;28;20118;-70
2023/08/04 06:10:36;;;;;;;3.10;3.00;;;18.70;99.90;;;18.99;93.77;101193.81;5051448;28;20139;-71
2023/08/04 06:13:06;;;;;;;2.97;2.88;;;18.80;99.90;;;18.98;93.77;101199.25;5044431;28;20453;-71
2023/08/04 06:15:35;;;;;;;3.22;3.13;;;18.80;99.90;;;19.00;93.58;101197.38;5044274;28;20138;-71
2023/08/04 06:18:03;;;;;;;2.65;2.55;;;18.80;99.90;;;19.02;93.42;101196.41;5045302;28;20077;-69
2023/08/04 06:20:33;;;;;;;3.03;2.92;;;18.80;99.90;;;19.07;93.67;101198.91;5043686;28;20406;-71
2023/08/04 06:23:01;;;;;;;3.10;3.00;;;18.90;99.90;;;19.12;94.09;101207.69;5046180;28;20048;-70
2023/08/04 06:25:29;;;;;;;2.80;2.70;;;18.90;99.90;;;19.24;93.92;101212.66;5058376;28;20104;-70
2023/08/04 06:27:58;;;;;;;2.90;2.80;;;19.00;99.90;;;19.29;93.98;101222.28;5034868;28;20046;-70
2023/08/04 06:30:28;;;;;;;2.80;2.70;;;19.10;99.90;;;19.39;93.83;101218.41;5034581;28;20083;-70
2023/08/04 06:32:56;;;;;;;3.08;2.97;;;19.20;99.90;;;19.56;93.57;101223.16;5034559;28;20499;-70
2023/08/04 06:35:24;;;;;;;2.50;2.40;;;19.30;99.90;;;19.46;93.81;101214.56;5036245;28;20047;-71
2023/08/04 06:37:53;;;;;;;2.85;2.75;;;19.30;99.90;;;19.46;93.09;101227.09;5044377;28;20456;-72
2023/08/04 06:40:21;;;;;;;2.90;2.80;;;19.20;99.90;;;19.29;94.73;101226.78;5044716;28;20156;-69
2023/08/04 06:42:49;;;;;;;4.07;3.78;;;19.10;99.90;;;19.50;94.32;101232.31;5043902;28;20045;-71
2023/08/04 06:45:18;;;;;;;3.10;3.00;;;19.20;99.90;;;19.61;93.58;101235.47;5045224;28;20128;-70
2023/08/04 06:47:48;;;;;;;2.72;2.63;;;19.40;99.90;;;19.64;92.74;101237.19;5043237;28;20376;-70
2023/08/04 06:50:16;;;;;;;2.93;2.83;;;19.40;99.90;;;19.76;92.90;101242.13;5034242;28;20045;-70
2023/08/04 06:52:45;;;;;;;2.90;2.80;;;19.50;99.90;;;19.83;92.50;101243.66;5042472;28;20724;-70
2023/08/04 06:55:13;;;;;;;3.08;2.97;;;19.60;99.90;;;19.83;91.17;101238.28;5045393;28;20044;-71
2023/08/04 06:57:41;;;;;;;3.15;3.05;;;19.70;99.90;;;19.78;89.71;101240.25;5043194;28;20487;-71
2023/08/04 07:00:11;;;;;;;3.78;3.53;;;19.60;99.90;;;19.73;87.82;101240.41;5044355;28;20072;-71
2023/08/04 07:02:40;;;;;;;3.10;3.00;;;19.60;99.90;;;19.74;87.36;101246.66;5043853;28;20510;-72
2023/08/04 07:05:10;;;;;;;3.08;2.97;;;19.50;99.90;;;19.74;86.84;101244.00;5043298;28;20452;-70
2023/08/04 07:07:38;;;;;;;3.17;3.05;;;19.60;99.90;;;19.75;86.26;101256.47;5044862;28;20045;-69
2023/08/04 07:10:10;;;;;;;2.90;2.80;;;19.60;99.90;;;19.82;86.34;101257.13;5042468;28;20456;-71
2023/08/04 07:12:39;;;;;;;2.80;2.70;;;19.60;99.90;;;19.78;85.99;101251.00;5042093;28;20091;-69
2023/08/04 07:15:10;;;;;;;2.88;2.78;;;19.60;99.90;;;19.97;86.52;101259.25;5045198;28;20036;-71
2023/08/04 07:17:38;;;;;;;3.00;2.90;;;19.70;99.90;;;20.00;86.42;101264.50;5043164;28;20042;-71
2023/08/04 07:20:08;;;;;;;3.30;3.20;;;19.80;99.90;;;19.98;85.05;101261.88;5044009;28;20084;-71
2023/08/04 07:22:38;;;;;;;2.85;2.75;;;19.90;99.90;;;19.69;85.21;101265.63;5043851;28;20487;-71
2023/08/04 07:25:08;;;;;;;3.17;3.08;;;19.60;99.90;;;19.94;84.69;101273.66;5042461;28;20045;-71
2023/08/04 07:27:36;;;;;;;3.03;2.92;;;19.80;99.90;;;19.87;85.07;101264.09;5044908;28;20043;-71
2023/08/04 07:30:06;;;;;;;26.15;3.60;;;19.70;99.90;;;19.95;84.34;101272.75;5041440;28;20045;-71
2023/08/04 07:32:34;;;;;;;3.53;3.42;;;19.80;99.90;;;20.15;84.22;101267.50;5033706;28;20128;-72
2023/08/04 07:35:03;;;;;;;3.67;3.47;;;20.00;99.90;;;20.19;83.87;101271.00;5033125;28;20045;-72
2023/08/04 07:37:31;;;;;;;2.70;2.60;;;20.00;99.90;;;20.43;84.39;101272.75;5033186;28;20050;-70
2023/08/04 07:40:01;;;;;;;3.00;2.90;;;20.20;99.90;;;20.61;83.43;101278.28;5038867;28;20457;-71
2023/08/04 07:42:30;;;;;;;2.97;2.87;;;20.50;99.90;;;20.73;82.47;101278.75;5043613;28;20083;-70
2023/08/04 07:44:58;;;;;;;2.63;2.53;;;20.60;99.90;;;20.78;81.00;101282.13;5043697;28;20065;-71
2023/08/04 07:47:26;;;;;;;2.67;2.58;;;20.60;99.90;;;20.95;81.38;101285.00;5042280;28;20103;-71
2023/08/04 07:49:55;;;;;;;3.45;3.25;;;20.80;99.90;;;21.14;80.55;101286.03;5044381;28;20375;-71
2023/08/04 07:52:23;;;;;;;3.25;2.95;;;21.00;99.90;;;21.16;79.39;101281.47;5041161;28;20557;-71
2023/08/04 07:54:53;;;;;;;2.60;2.50;;;21.10;99.90;;;21.06;79.25;101272.91;5041034;28;20077;-71
2023/08/04 07:57:22;;;;;;;8.65;3.33;;;21.00;99.90;;;21.08;78.41;101283.63;5041374;28;20041;-71
2023/08/04 07:59:51;;;;;;;3.37;3.17;;;21.00;99.90;;;20.97;78.87;101300.16;5043680;28;20073;-71
2023/08/04 08:02:20;;;;;;;3.17;3.08;;;20.80;99.90;;;20.82;78.82;101283.75;5042269;28;20037;-70
2023/08/04 08:04:48;;;;;;;3.00;2.90;;;20.70;99.90;;;20.58;78.21;101289.16;5042837;28;20068;-70
2023/08/04 08:07:16;;;;;;;3.08;2.97;;;20.50;99.90;;;20.64;78.98;101299.69;5043032;28;20091;-71
2023/08/04 08:09:50;;;;;;;2.60;2.50;;;20.40;99.90;;;21.06;78.33;101298.94;5041905;28;20045;-71
2023/08/04 08:12:19;;;;;;;3.05;2.95;;;20.80;99.90;;;21.27;78.37;101298.06;5044676;28;20536;-71
2023/08/04 08:14:48;;;;;;;2.85;2.75;;;21.10;99.90;;;21.47;76.92;101306.16;5040660;28;20098;-70
2023/08/04 08:17:17;;;;;;;3.13;2.93;;;21.30;99.90;;;21.69;76.57;101306.13;5043910;28;20057;-71
2023/08/04 08:19:45;;;;;;;2.92;2.83;;;21.50;99.90;;;21.74;75.46;101307.69;5041698;28;20836;-69
2023/08/04 08:22:13;;;;;;;3.53;3.38;;;21.60;99.90;;;21.75;72.96;101313.94;5043260;28;20048;-71
2023/08/04 08:24:42;;;;;;;19.70;3.60;;;21.60;99.90;;;21.78;72.60;101309.31;5042829;28;20045;-71
2023/08/04 08:27:10;;;;;;;2.80;2.70;;;21.70;99.90;;;21.97;72.52;101321.06;5057940;28;20077;-71
2023/08/04 08:29:40;;;;;;;2.63;2.53;;;21.80;99.90;;;21.97;70.54;101318.34;5042958;28;20061;-71
2023/08/04 08:32:10;;;;;;;;;;;21.90;99.90;;;22.31;70.83;101333.91;5041723;28;20038;-71
2023/08/04 08:34:39;;;;;;;2.58;2.47;;;22.10;99.90;;;22.52;70.34;101330.22;5043462;28;20023;-71
2023/08/04 08:37:09;;;;;;;2.70;2.60;;;22.40;99.90;;;22.68;67.90;101328.63;5032673;28;20071;-70
2023/08/04 08:39:37;;;;;;;2.72;2.63;;;22.50;99.90;;;22.72;68.09;101334.72;5032505;28;20052;-70
2023/08/04 08:42:06;;;;;;;2.63;2.53;;;22.60;99.90;;;22.60;66.85;101335.31;5032689;28;20116;-71
2023/08/04 08:44:34;;;;;;;2.83;2.72;;;22.50;99.90;;;22.44;67.89;101340.50;5033766;28;20454;-71
2023/08/04 08:47:03;;;;;;;2.40;2.30;;;22.20;99.90;;;22.31;68.17;101340.19;5042577;28;20102;-70
2023/08/04 08:49:41;;;;;;;3.08;2.97;;;22.10;99.90;;;22.60;67.01;101346.09;5043085;28;20046;-71
2023/08/04 08:52:10;;;;;;;3.22;3.13;;;22.40;99.90;;;22.28;66.57;101342.13;5032910;28;20037;-71
2023/08/04 08:54:38;;;;;;;2.60;2.50;;;22.20;99.90;;;22.16;66.69;101340.84;5040928;28;20056;-70
2023/08/04 08:57:07;;;;;;;3.03;2.92;;;22.10;99.90;;;22.33;67.46;101343.69;5043253;28;20041;-71
2023/08/04 08:59:36;;;;;;;2.47;2.38;;;22.20;99.90;;;21.85;68.50;101344.97;5041432;28;20078;-71
2023/08/04 09:02:05;;;;;;;2.95;2.85;;;21.80;99.90;;;22.03;69.32;101345.03;5043085;28;20127;-70
2023/08/04 09:04:37;;;;;;;2.92;2.83;;;21.80;99.90;;;21.65;69.88;101347.59;5042277;28;20542;-71
2023/08/04 09:07:07;;;;;;;2.83;2.72;;;21.60;99.90;;;21.21;71.85;101347.66;5041267;28;20049;-71
2023/08/04 09:09:36;;;;;;;4.03;3.30;;;21.10;99.90;;;21.10;72.49;101338.25;5043619;28;20048;-70
2023/08/04 09:12:07;;;;;;;2.85;2.75;;;20.90;99.90;;;20.90;74.20;101346.19;5044035;28;20057;-71
2023/08/04 09:14:49;;;;;;;3.42;3.28;;;20.70;99.90;;;20.73;76.06;101354.03;5040869;28;20119;-69
2023/08/04 09:17:32;;;;;;;2.88;2.78;;;20.50;99.90;;;20.88;75.14;101365.09;5041031;28;20146;-70
2023/08/04 09:20:05;;;;;;;4.40;4.05;;;20.60;99.90;;;20.82;76.51;101359.06;5041589;28;20076;-69
2023/08/04 09:22:39;;;;;;;2.92;2.83;;;20.60;99.90;;;21.07;76.05;101367.94;5041681;28;20037;-70
2023/08/04 09:25:08;;;;;;;3.15;3.05;;;20.80;99.90;;;21.07;75.51;101363.44;5043738;28;20120;-70
2023/08/04 09:27:38;;;;;;;2.60;2.50;;;20.80;99.90;;;21.14;75.35;101361.38;5031919;28;20073;-71
2023/08/04 09:30:09;;;;;;;3.38;3.28;;;20.80;99.90;;;21.15;74.40;101355.06;5040560;28;20045;-70
2023/08/04 09:32:42;;;;;;;;;;;21.00;99.90;;;20.92;75.33;101368.53;5043046;28;20416;-69
2023/08/04 09:35:12;;;;;;;2.50;2.40;;;20.70;99.90;;;21.18;74.61;101371.09;5042194;28;19975;-70
2023/08/04 09:37:42;;;;;;;2.92;2.83;;;20.90;99.90;;;21.39;73.75;101367.53;5047904;28;20052;-71
2023/08/04 09:40:17;;;;;;;2.70;2.60;;;21.10;99.90;;;20.83;73.79;101348.22;5043413;28;20045;-71
2023/08/04 09:42:47;;;;;;;3.13;3.03;;;20.70;99.90;;;20.97;74.68;101371.91;5039591;28;20046;-70
2023/08/04 09:45:16;;;;;;;2.60;2.50;;;20.70;99.90;;;20.88;73.94;101375.84;5059913;28;20060;-70
2023/08/04 09:47:49;;;;;;;3.75;3.55;;;20.60;99.90;;;20.88;73.89;101362.41;5045536;28;20055;-70
2023/08/04 09:50:20;;;;;;;2.72;2.63;;;20.60;99.90;;;21.00;74.10;101379.88;5044831;28;20049;-71
2023/08/04 09:53:02;;;;;;;3.20;3.03;;;20.70;99.90;;;20.88;74.30;101365.09;5059096;28;20053;-71
2023/08/04 09:55:30;;;;;;;2.58;2.47;;;20.60;99.90;;;20.81;73.13;101368.06;5044933;28;20045;-70
2023/08/04 09:57:59;;;;;;;3.05;2.95;;;20.50;99.90;;;20.93;71.24;101367.56;5044971;28;20037;-71
2023/08/04 10:00:28;;;;;;;2.97;2.88;;;20.70;99.90;;;20.86;72.28;101372.34;5045715;28;20072;-71
2023/08/04 10:02:57;;;;;;;3.15;3.05;;;20.60;99.90;;;20.78;73.97;101373.56;5044367;28;20037;-71
2023/08/04 10:05:28;;;;;;;2.80;2.70;;;20.50;99.90;;;21.00;76.12;101379.88;5046520;28;20104;-70
2023/08/04 10:07:57;;;;;;;3.13;3.03;;;20.60;99.90;;;21.23;76.80;101386.13;5043126;28;20049;-70
2023/08/04 10:10:25;;;;;;;2.65;2.55;;;20.80;99.90;;;21.04;73.02;101393.16;5046598;28;20492;-71
2023/08/04 10:12:54;;;;;;;3.15;3.05;;;20.80;99.90;;;20.92;71.30;101392.72;5044241;28;20045;-71
2023/08/04 10:15:22;;;;;;;2.80;2.70;;;20.70;99.90;;;20.91;71.39;101386.47;5046008;28;20085;-72
2023/08/04 10:17:50;;;;;;;3.55;3.45;;;20.60;99.90;;;20.88;70.28;101386.59;5044475;28;20060;-71
2023/08/04 10:20:21;;;;;;;3.20;3.10;;;20.60;99.90;;;21.18;71.12;101395.28;5045042;28;20049;-71
2023/08/04 10:22:52;;;;;;;3.05;2.95;;;20.80;99.90;;;21.51;69.39;101393.94;5045669;28;20048;-71